KINS/INS METAR and TAF weather

Enter ICAO airport designator
Station Type Date Time Source
KINS METAR 2020/11/27 01:58 UTC NOAA

KINS 270158Z AUTO 03004KT 10SM CLR 07/M14 A3018 RMK AO2 SLP216 T00711144 $


Station Type Date Time Source
KINS Decoded METAR 2020/11/27 01:58 UTC NOAA

Indian Springs, Indian Springs Auxiliary AFLD Nellis AFB, NV, United States (KINS) 36-35N 115-40W
Nov 26, 2020 - 08:58 PM EST / 2020.11.27 0158 UTC
Wind: from the NNE (030 degrees) at 5 MPH (4 KT):0
Visibility: 10 mile(s):0
Sky conditions: clear
Temperature: 44.8 F (7.1 C)
Dew Point: 6.1 F (-14.4 C)
Relative Humidity: 19%
Pressure (altimeter): 30.18 in. Hg (1022 hPa)
ob: KINS 270158Z AUTO 03004KT 10SM CLR 07/M14 A3018 RMK AO2 SLP216 T00711144
cycle: 2

Station Type Date Time Source
KINS TAF 2020/11/26 05:58 UTC NOAA

TAF KINS 260455Z 2605/2711 VRB06KT 9999 SKC QNH3001INS
BECMG 2611/2612 32009KT 9999 SCT120 QNH3009INS
BECMG 2617/2618 01010G15KT 9999 BKN080 QNH3013INS
BECMG 2620/2621 01015G25KT 9999 BKN120 520009 QNH3011INS
BECMG 2705/2706 01012KT 9999 BKN100 QNH3024INS TX10/2620Z TN00/2613Z LAST NO
AMDS AFT 2606 NEXT 2905

Example: see airport list